sensor_id;sensor_type;location;lat;lon;timestamp;temperature;humidity
52799;DHT22;38667;42.872;74.622;2022-09-09T00:00:12;21.20;41.10
52799;DHT22;38667;42.872;74.622;2022-09-09T00:02:44;21.20;41.20
52799;DHT22;38667;42.872;74.622;2022-09-09T00:05:18;21.20;41.30
52799;DHT22;38667;42.872;74.622;2022-09-09T00:07:50;21.20;41.10
52799;DHT22;38667;42.872;74.622;2022-09-09T00:10:23;21.20;41.30
52799;DHT22;38667;42.872;74.622;2022-09-09T00:12:57;21.20;41.50
52799;DHT22;38667;42.872;74.622;2022-09-09T00:15:28;21.20;41.10
52799;DHT22;38667;42.872;74.622;2022-09-09T00:18:01;21.20;41.70
52799;DHT22;38667;42.872;74.622;2022-09-09T00:20:33;21.20;42.80
52799;DHT22;38667;42.872;74.622;2022-09-09T00:23:09;21.20;43.30
52799;DHT22;38667;42.872;74.622;2022-09-09T00:25:44;21.10;43.40
52799;DHT22;38667;42.872;74.622;2022-09-09T00:28:18;20.90;43.70
52799;DHT22;38667;42.872;74.622;2022-09-09T00:30:45;20.80;44.00
52799;DHT22;38667;42.872;74.622;2022-09-09T00:33:13;20.70;47.10
52799;DHT22;38667;42.872;74.622;2022-09-09T00:35:43;20.60;45.40
52799;DHT22;38667;42.872;74.622;2022-09-09T00:38:14;20.50;45.00
52799;DHT22;38667;42.872;74.622;2022-09-09T00:40:48;20.50;45.00
52799;DHT22;38667;42.872;74.622;2022-09-09T00:43:26;20.50;44.00
52799;DHT22;38667;42.872;74.622;2022-09-09T00:46:06;20.50;44.00
52799;DHT22;38667;42.872;74.622;2022-09-09T00:48:43;20.50;44.30
52799;DHT22;38667;42.872;74.622;2022-09-09T00:51:17;20.40;44.60
52799;DHT22;38667;42.872;74.622;2022-09-09T00:54:13;20.30;45.10
52799;DHT22;38667;42.872;74.622;2022-09-09T00:56:47;20.10;45.50
52799;DHT22;38667;42.872;74.622;2022-09-09T00:59:24;20.00;46.30
52799;DHT22;38667;42.872;74.622;2022-09-09T01:01:54;19.90;47.20
52799;DHT22;38667;42.872;74.622;2022-09-09T01:04:29;19.90;47.10
52799;DHT22;38667;42.872;74.622;2022-09-09T01:07:03;19.80;47.50
52799;DHT22;38667;42.872;74.622;2022-09-09T01:09:37;19.70;47.40
52799;DHT22;38667;42.872;74.622;2022-09-09T01:12:11;19.80;48.00
52799;DHT22;38667;42.872;74.622;2022-09-09T01:14:42;19.80;48.20
52799;DHT22;38667;42.872;74.622;2022-09-09T01:17:13;19.80;48.30
52799;DHT22;38667;42.872;74.622;2022-09-09T01:19:49;19.70;49.70
52799;DHT22;38667;42.872;74.622;2022-09-09T01:22:24;19.70;50.20
52799;DHT22;38667;42.872;74.622;2022-09-09T01:25:11;19.60;50.30
52799;DHT22;38667;42.872;74.622;2022-09-09T01:27:42;19.60;49.90
52799;DHT22;38667;42.872;74.622;2022-09-09T01:30:10;19.70;50.10
52799;DHT22;38667;42.872;74.622;2022-09-09T01:32:43;19.70;50.50
52799;DHT22;38667;42.872;74.622;2022-09-09T01:35:12;19.60;51.30
52799;DHT22;38667;42.872;74.622;2022-09-09T01:37:40;19.60;50.40
52799;DHT22;38667;42.872;74.622;2022-09-09T01:40:07;19.70;51.90
52799;DHT22;38667;42.872;74.622;2022-09-09T01:42:33;19.70;50.20
52799;DHT22;38667;42.872;74.622;2022-09-09T01:45:01;19.80;50.60
52799;DHT22;38667;42.872;74.622;2022-09-09T01:47:28;19.80;50.90
52799;DHT22;38667;42.872;74.622;2022-09-09T01:49:54;19.90;51.70
52799;DHT22;38667;42.872;74.622;2022-09-09T01:52:20;19.90;50.70
52799;DHT22;38667;42.872;74.622;2022-09-09T01:54:47;20.00;50.20
52799;DHT22;38667;42.872;74.622;2022-09-09T01:57:18;19.90;51.20
52799;DHT22;38667;42.872;74.622;2022-09-09T01:59:53;20.00;49.60
52799;DHT22;38667;42.872;74.622;2022-09-09T02:02:27;20.10;49.70
52799;DHT22;38667;42.872;74.622;2022-09-09T02:04:56;20.10;49.70
52799;DHT22;38667;42.872;74.622;2022-09-09T02:07:33;20.20;49.80
52799;DHT22;38667;42.872;74.622;2022-09-09T02:10:09;20.30;50.40
52799;DHT22;38667;42.872;74.622;2022-09-09T02:12:36;20.30;49.80
52799;DHT22;38667;42.872;74.622;2022-09-09T02:15:11;20.30;49.10
52799;DHT22;38667;42.872;74.622;2022-09-09T02:17:43;20.40;50.10
52799;DHT22;38667;42.872;74.622;2022-09-09T02:20:13;20.30;49.30
52799;DHT22;38667;42.872;74.622;2022-09-09T02:22:43;20.40;49.20
52799;DHT22;38667;42.872;74.622;2022-09-09T02:25:12;20.40;49.10
52799;DHT22;38667;42.872;74.622;2022-09-09T02:27:41;20.50;50.60
52799;DHT22;38667;42.872;74.622;2022-09-09T02:30:10;20.50;51.00
52799;DHT22;38667;42.872;74.622;2022-09-09T02:32:37;20.60;50.80
52799;DHT22;38667;42.872;74.622;2022-09-09T02:35:08;20.60;50.60
52799;DHT22;38667;42.872;74.622;2022-09-09T02:37:37;20.70;50.20
52799;DHT22;38667;42.872;74.622;2022-09-09T02:40:04;20.70;47.00
52799;DHT22;38667;42.872;74.622;2022-09-09T02:42:31;20.90;49.00
52799;DHT22;38667;42.872;74.622;2022-09-09T02:44:57;20.90;49.40
52799;DHT22;38667;42.872;74.622;2022-09-09T02:47:30;21.00;45.80
52799;DHT22;38667;42.872;74.622;2022-09-09T02:50:10;21.00;47.20
52799;DHT22;38667;42.872;74.622;2022-09-09T02:52:52;21.10;46.40
52799;DHT22;38667;42.872;74.622;2022-09-09T02:55:27;21.20;48.20
52799;DHT22;38667;42.872;74.622;2022-09-09T02:57:57;21.30;49.10
52799;DHT22;38667;42.872;74.622;2022-09-09T03:00:26;21.20;49.40
52799;DHT22;38667;42.872;74.622;2022-09-09T03:02:53;21.20;49.20
52799;DHT22;38667;42.872;74.622;2022-09-09T03:05:21;21.30;49.30
52799;DHT22;38667;42.872;74.622;2022-09-09T03:07:47;21.30;47.80
52799;DHT22;38667;42.872;74.622;2022-09-09T03:10:13;21.40;48.20
52799;DHT22;38667;42.872;74.622;2022-09-09T03:12:40;21.40;48.20
52799;DHT22;38667;42.872;74.622;2022-09-09T03:15:07;21.50;48.50
52799;DHT22;38667;42.872;74.622;2022-09-09T03:17:33;21.50;46.40
52799;DHT22;38667;42.872;74.622;2022-09-09T03:20:00;21.60;46.20
52799;DHT22;38667;42.872;74.622;2022-09-09T03:22:28;21.60;45.80
52799;DHT22;38667;42.872;74.622;2022-09-09T03:24:54;21.60;46.70
52799;DHT22;38667;42.872;74.622;2022-09-09T03:27:20;21.70;46.10
52799;DHT22;38667;42.872;74.622;2022-09-09T03:29:47;21.80;46.40
52799;DHT22;38667;42.872;74.622;2022-09-09T03:32:13;21.90;46.00
52799;DHT22;38667;42.872;74.622;2022-09-09T03:34:40;21.90;44.90
52799;DHT22;38667;42.872;74.622;2022-09-09T03:37:06;22.10;45.70
52799;DHT22;38667;42.872;74.622;2022-09-09T03:39:34;22.20;42.10
52799;DHT22;38667;42.872;74.622;2022-09-09T03:42:00;22.20;43.40
52799;DHT22;38667;42.872;74.622;2022-09-09T03:44:27;22.20;43.40
52799;DHT22;38667;42.872;74.622;2022-09-09T03:46:53;22.30;43.60
52799;DHT22;38667;42.872;74.622;2022-09-09T03:49:19;22.40;43.70
52799;DHT22;38667;42.872;74.622;2022-09-09T03:51:45;22.40;43.80
52799;DHT22;38667;42.872;74.622;2022-09-09T03:54:12;22.50;43.50
52799;DHT22;38667;42.872;74.622;2022-09-09T03:56:40;22.60;44.00
52799;DHT22;38667;42.872;74.622;2022-09-09T03:59:06;22.70;45.10
52799;DHT22;38667;42.872;74.622;2022-09-09T04:01:32;22.80;44.30
52799;DHT22;38667;42.872;74.622;2022-09-09T04:03:59;22.80;43.50
52799;DHT22;38667;42.872;74.622;2022-09-09T04:06:25;22.70;43.00
52799;DHT22;38667;42.872;74.622;2022-09-09T04:08:51;22.70;43.20
52799;DHT22;38667;42.872;74.622;2022-09-09T04:11:18;22.70;42.30
52799;DHT22;38667;42.872;74.622;2022-09-09T04:13:46;22.80;42.50
52799;DHT22;38667;42.872;74.622;2022-09-09T04:16:13;22.90;43.00
52799;DHT22;38667;42.872;74.622;2022-09-09T04:18:39;23.00;43.60
52799;DHT22;38667;42.872;74.622;2022-09-09T04:21:06;23.10;43.90
52799;DHT22;38667;42.872;74.622;2022-09-09T04:23:32;23.20;40.40
52799;DHT22;38667;42.872;74.622;2022-09-09T04:25:59;23.30;42.50
52799;DHT22;38667;42.872;74.622;2022-09-09T04:28:28;23.40;41.10
52799;DHT22;38667;42.872;74.622;2022-09-09T04:30:56;23.40;41.90
52799;DHT22;38667;42.872;74.622;2022-09-09T04:33:24;23.40;40.10
52799;DHT22;38667;42.872;74.622;2022-09-09T04:35:50;23.40;39.60
52799;DHT22;38667;42.872;74.622;2022-09-09T04:38:17;23.60;39.90
52799;DHT22;38667;42.872;74.622;2022-09-09T04:40:45;23.60;39.20
52799;DHT22;38667;42.872;74.622;2022-09-09T04:43:12;23.60;39.60
52799;DHT22;38667;42.872;74.622;2022-09-09T04:45:38;23.70;40.20
52799;DHT22;38667;42.872;74.622;2022-09-09T04:48:06;23.70;40.50
52799;DHT22;38667;42.872;74.622;2022-09-09T04:50:32;23.70;40.10
52799;DHT22;38667;42.872;74.622;2022-09-09T04:53:00;23.80;38.60
52799;DHT22;38667;42.872;74.622;2022-09-09T04:55:27;23.90;38.50
52799;DHT22;38667;42.872;74.622;2022-09-09T04:57:53;24.00;39.10
52799;DHT22;38667;42.872;74.622;2022-09-09T05:00:19;24.10;39.40
52799;DHT22;38667;42.872;74.622;2022-09-09T05:02:46;24.20;39.60
52799;DHT22;38667;42.872;74.622;2022-09-09T05:05:14;24.30;39.20
52799;DHT22;38667;42.872;74.622;2022-09-09T05:07:40;24.40;39.30
52799;DHT22;38667;42.872;74.622;2022-09-09T05:10:07;24.50;39.30
52799;DHT22;38667;42.872;74.622;2022-09-09T05:12:33;24.60;39.30
52799;DHT22;38667;42.872;74.622;2022-09-09T05:15:00;24.60;38.70
52799;DHT22;38667;42.872;74.622;2022-09-09T05:17:26;24.60;38.00
52799;DHT22;38667;42.872;74.622;2022-09-09T05:19:52;24.70;37.00
52799;DHT22;38667;42.872;74.622;2022-09-09T05:22:21;24.70;36.50
52799;DHT22;38667;42.872;74.622;2022-09-09T05:24:47;24.80;37.20
52799;DHT22;38667;42.872;74.622;2022-09-09T05:27:13;24.80;37.10
52799;DHT22;38667;42.872;74.622;2022-09-09T05:29:40;24.80;35.50
52799;DHT22;38667;42.872;74.622;2022-09-09T05:32:06;25.00;35.70
52799;DHT22;38667;42.872;74.622;2022-09-09T05:34:32;25.10;35.20
52799;DHT22;38667;42.872;74.622;2022-09-09T05:36:58;25.20;33.90
52799;DHT22;38667;42.872;74.622;2022-09-09T05:39:26;25.40;35.50
52799;DHT22;38667;42.872;74.622;2022-09-09T05:41:52;25.50;36.10
52799;DHT22;38667;42.872;74.622;2022-09-09T05:44:19;25.50;36.20
52799;DHT22;38667;42.872;74.622;2022-09-09T05:46:45;25.40;35.10
52799;DHT22;38667;42.872;74.622;2022-09-09T05:49:11;25.50;34.90
52799;DHT22;38667;42.872;74.622;2022-09-09T05:51:38;25.70;35.50
52799;DHT22;38667;42.872;74.622;2022-09-09T05:54:04;25.70;34.30
52799;DHT22;38667;42.872;74.622;2022-09-09T05:56:32;25.80;33.90
52799;DHT22;38667;42.872;74.622;2022-09-09T05:58:58;26.00;34.30
52799;DHT22;38667;42.872;74.622;2022-09-09T06:01:26;26.20;33.20
52799;DHT22;38667;42.872;74.622;2022-09-09T06:03:53;26.20;33.30
52799;DHT22;38667;42.872;74.622;2022-09-09T06:06:21;26.20;33.80
52799;DHT22;38667;42.872;74.622;2022-09-09T06:08:47;26.50;33.70
52799;DHT22;38667;42.872;74.622;2022-09-09T06:11:15;26.50;34.00
52799;DHT22;38667;42.872;74.622;2022-09-09T06:13:43;26.30;33.50
52799;DHT22;38667;42.872;74.622;2022-09-09T06:16:11;26.20;34.30
52799;DHT22;38667;42.872;74.622;2022-09-09T06:18:37;26.30;34.40
52799;DHT22;38667;42.872;74.622;2022-09-09T06:21:06;26.30;34.50
52799;DHT22;38667;42.872;74.622;2022-09-09T06:23:32;26.10;35.20
52799;DHT22;38667;42.872;74.622;2022-09-09T06:26:06;25.90;35.20
52799;DHT22;38667;42.872;74.622;2022-09-09T06:28:33;26.00;35.70
52799;DHT22;38667;42.872;74.622;2022-09-09T06:31:03;26.20;35.60
52799;DHT22;38667;42.872;74.622;2022-09-09T06:33:32;26.20;35.20
52799;DHT22;38667;42.872;74.622;2022-09-09T06:35:58;26.30;34.00
52799;DHT22;38667;42.872;74.622;2022-09-09T06:38:25;26.30;34.20
52799;DHT22;38667;42.872;74.622;2022-09-09T06:40:52;26.30;35.30
52799;DHT22;38667;42.872;74.622;2022-09-09T06:43:18;26.30;35.10
52799;DHT22;38667;42.872;74.622;2022-09-09T06:45:53;26.40;35.40
52799;DHT22;38667;42.872;74.622;2022-09-09T06:48:21;26.50;35.40
52799;DHT22;38667;42.872;74.622;2022-09-09T06:50:47;26.60;33.90
52799;DHT22;38667;42.872;74.622;2022-09-09T06:53:16;26.60;33.60
52799;DHT22;38667;42.872;74.622;2022-09-09T06:55:43;26.60;32.40
52799;DHT22;38667;42.872;74.622;2022-09-09T06:58:09;26.70;33.40
52799;DHT22;38667;42.872;74.622;2022-09-09T07:00:35;26.70;33.20
52799;DHT22;38667;42.872;74.622;2022-09-09T07:03:02;26.80;33.50
52799;DHT22;38667;42.872;74.622;2022-09-09T07:05:29;26.90;33.80
52799;DHT22;38667;42.872;74.622;2022-09-09T07:07:56;26.90;33.60
52799;DHT22;38667;42.872;74.622;2022-09-09T07:10:22;27.00;33.80
52799;DHT22;38667;42.872;74.622;2022-09-09T07:12:51;26.90;32.10
52799;DHT22;38667;42.872;74.622;2022-09-09T07:15:17;26.70;32.40
52799;DHT22;38667;42.872;74.622;2022-09-09T07:17:43;26.70;32.60
52799;DHT22;38667;42.872;74.622;2022-09-09T07:20:10;26.90;32.40
52799;DHT22;38667;42.872;74.622;2022-09-09T07:22:37;27.00;33.50
52799;DHT22;38667;42.872;74.622;2022-09-09T07:25:05;26.90;33.00
52799;DHT22;38667;42.872;74.622;2022-09-09T07:27:31;27.00;34.00
52799;DHT22;38667;42.872;74.622;2022-09-09T07:29:57;27.00;34.00
52799;DHT22;38667;42.872;74.622;2022-09-09T07:32:24;27.00;32.50
52799;DHT22;38667;42.872;74.622;2022-09-09T07:34:50;27.10;32.90
52799;DHT22;38667;42.872;74.622;2022-09-09T07:37:16;27.10;32.50
52799;DHT22;38667;42.872;74.622;2022-09-09T07:39:44;27.10;32.40
52799;DHT22;38667;42.872;74.622;2022-09-09T07:42:11;27.10;33.40
52799;DHT22;38667;42.872;74.622;2022-09-09T07:44:38;27.10;32.40
52799;DHT22;38667;42.872;74.622;2022-09-09T07:47:04;27.10;32.90
52799;DHT22;38667;42.872;74.622;2022-09-09T07:49:30;27.10;33.30
52799;DHT22;38667;42.872;74.622;2022-09-09T07:51:57;27.00;33.60
52799;DHT22;38667;42.872;74.622;2022-09-09T07:54:23;27.00;33.00
52799;DHT22;38667;42.872;74.622;2022-09-09T07:56:52;27.10;33.00
52799;DHT22;38667;42.872;74.622;2022-09-09T07:59:18;27.20;32.30
52799;DHT22;38667;42.872;74.622;2022-09-09T08:01:46;27.20;32.70
52799;DHT22;38667;42.872;74.622;2022-09-09T08:04:14;27.20;33.10
52799;DHT22;38667;42.872;74.622;2022-09-09T08:06:42;27.20;32.80
52799;DHT22;38667;42.872;74.622;2022-09-09T08:09:10;27.20;33.20
52799;DHT22;38667;42.872;74.622;2022-09-09T08:11:36;27.10;32.90
52799;DHT22;38667;42.872;74.622;2022-09-09T08:14:05;27.10;31.60
52799;DHT22;38667;42.872;74.622;2022-09-09T08:16:33;27.10;31.70
52799;DHT22;38667;42.872;74.622;2022-09-09T08:18:59;27.10;32.80
52799;DHT22;38667;42.872;74.622;2022-09-09T08:21:28;26.80;32.60
52799;DHT22;38667;42.872;74.622;2022-09-09T08:23:56;26.60;33.00
52799;DHT22;38667;42.872;74.622;2022-09-09T08:26:23;26.50;33.40
52799;DHT22;38667;42.872;74.622;2022-09-09T08:28:51;26.80;33.60
52799;DHT22;38667;42.872;74.622;2022-09-09T08:31:22;27.00;32.60
52799;DHT22;38667;42.872;74.622;2022-09-09T08:33:48;26.70;32.40
52799;DHT22;38667;42.872;74.622;2022-09-09T08:36:18;26.90;32.90
52799;DHT22;38667;42.872;74.622;2022-09-09T08:38:48;27.60;30.80
52799;DHT22;38667;42.872;74.622;2022-09-09T08:41:37;27.50;31.30
52799;DHT22;38667;42.872;74.622;2022-09-09T08:44:07;27.30;31.40
52799;DHT22;38667;42.872;74.622;2022-09-09T08:46:44;27.30;31.20
52799;DHT22;38667;42.872;74.622;2022-09-09T08:49:24;27.00;32.60
52799;DHT22;38667;42.872;74.622;2022-09-09T08:51:57;26.80;32.00
52799;DHT22;38667;42.872;74.622;2022-09-09T08:54:24;26.60;33.10
52799;DHT22;38667;42.872;74.622;2022-09-09T08:56:55;26.40;33.10
52799;DHT22;38667;42.872;74.622;2022-09-09T08:59:21;26.40;32.50
52799;DHT22;38667;42.872;74.622;2022-09-09T09:02:00;26.40;33.00
52799;DHT22;38667;42.872;74.622;2022-09-09T09:07:55;26.50;32.70
